Time;durP1;ratioP1;P1;durP2;ratioP2;P2;SDS_P1;SDS_P2;PMS_P1;PMS_P2;Temp;Humidity;BMP_temperature;BMP_pressure;BME280_temperature;BME280_humidity;BME280_pressure;Samples;Min_cycle;Max_cycle;Signal;HPM_P1;HPM_P2
2023/08/18 00:01:45;;;;;;;4.90;3.40;;;18.80;99.90;18.60;100922;;;;587935;240;24063;-81
2023/08/18 00:04:13;;;;;;;11.10;3.10;;;18.80;99.90;18.60;100924;;;;588335;240;23068;-79
2023/08/18 00:06:41;;;;;;;6.80;2.90;;;18.90;99.90;18.60;100929;;;;588487;240;24098;-78
2023/08/18 00:09:12;;;;;;;6.37;3.20;;;18.90;99.90;18.60;100927;;;;588315;240;23117;-80
2023/08/18 00:11:37;;;;;;;6.43;3.17;;;18.90;99.90;18.70;100928;;;;588029;240;24077;-78
2023/08/18 00:14:05;;;;;;;2.93;2.63;;;18.90;99.90;18.70;100935;;;;588246;240;23042;-80
2023/08/18 00:16:37;;;;;;;8.57;3.47;;;18.90;99.90;18.70;100940;;;;588190;240;24079;-78
2023/08/18 00:19:01;;;;;;;4.87;3.07;;;18.90;99.90;18.70;100938;;;;582255;240;23100;-79
2023/08/18 00:21:29;;;;;;;5.27;3.43;;;18.90;99.90;18.70;100926;;;;588146;240;24131;-76
2023/08/18 00:23:57;;;;;;;4.53;3.60;;;18.90;99.90;18.70;100944;;;;587707;240;24163;-81
2023/08/18 00:26:24;;;;;;;6.90;3.67;;;18.90;99.90;18.70;100940;;;;597392;240;24108;-75
2023/08/18 00:28:52;;;;;;;5.10;3.47;;;19.00;99.90;18.70;100936;;;;587853;240;24033;-80
2023/08/18 00:31:20;;;;;;;8.70;3.50;;;19.00;99.90;18.70;100942;;;;587749;240;23038;-83
2023/08/18 00:33:48;;;;;;;6.97;3.10;;;19.00;99.90;18.70;100939;;;;587637;240;24078;-82
2023/08/18 00:36:16;;;;;;;8.65;4.28;;;19.00;99.90;18.70;100942;;;;582229;240;34909;-85
2023/08/18 00:38:44;;;;;;;7.03;3.90;;;19.00;99.90;18.80;100938;;;;586751;240;24033;-77
2023/08/18 00:41:15;;;;;;;9.47;3.53;;;19.00;99.90;18.80;100930;;;;586425;240;24056;-76
2023/08/18 00:43:40;;;;;;;7.40;3.47;;;19.00;99.90;18.80;100932;;;;582802;240;24046;-76
2023/08/18 00:46:11;;;;;;;5.50;3.63;;;19.00;99.90;18.80;100924;;;;586462;240;24102;-76
2023/08/18 00:48:40;;;;;;;13.53;3.30;;;19.00;99.90;18.80;100921;;;;582743;240;24083;-76
2023/08/18 00:51:06;;;;;;;5.40;3.43;;;19.00;99.90;18.80;100924;;;;595162;240;23056;-77
2023/08/18 00:53:34;;;;;;;8.47;3.90;;;19.00;99.90;18.80;100935;;;;595504;240;24078;-77
2023/08/18 00:56:02;;;;;;;4.13;3.73;;;19.00;99.90;18.80;100930;;;;596085;240;24105;-78
2023/08/18 00:58:36;;;;;;;4.50;3.57;;;19.00;99.90;18.80;100923;;;;595839;240;24043;-77
2023/08/18 01:01:02;;;;;;;5.77;3.20;;;19.00;99.90;18.80;100921;;;;586527;240;23099;-78
2023/08/18 01:03:35;;;;;;;6.37;3.63;;;19.00;99.90;18.80;100928;;;;586933;240;24045;-77
2023/08/18 01:06:03;;;;;;;5.27;3.87;;;19.00;99.90;18.80;100925;;;;587915;240;23042;-77
2023/08/18 01:08:34;;;;;;;8.93;4.00;;;19.00;99.90;18.80;100911;;;;588149;240;23137;-86
2023/08/18 01:11:36;;;;;;;6.63;3.80;;;19.00;99.90;18.80;100911;;;;587718;240;24128;-86
2023/08/18 01:14:30;;;;;;;5.43;3.60;;;19.00;99.90;18.70;100912;;;;587972;240;24067;-87
2023/08/18 01:17:01;;;;;;;4.73;3.70;;;19.00;99.90;18.70;100901;;;;586770;240;24030;-84
2023/08/18 01:19:29;;;;;;;5.50;3.77;;;19.00;99.90;18.70;100906;;;;590949;240;24053;-80
2023/08/18 01:21:56;;;;;;;10.03;3.67;;;18.90;99.90;18.70;100897;;;;587018;240;24054;-76
2023/08/18 01:24:24;;;;;;;7.80;4.00;;;19.00;99.90;18.70;100891;;;;586867;240;23054;-76
2023/08/18 01:26:52;;;;;;;6.27;4.00;;;19.00;99.90;18.70;100888;;;;587182;240;23158;-76
2023/08/18 01:29:23;;;;;;;7.70;4.50;;;19.00;99.90;18.70;100887;;;;587055;240;24011;-81
2023/08/18 01:31:51;;;;;;;10.83;4.03;;;19.00;99.90;18.70;100881;;;;587055;240;24045;-77
2023/08/18 01:34:19;;;;;;;6.47;4.27;;;19.00;99.90;18.70;100880;;;;586770;240;24064;-77
2023/08/18 01:36:47;;;;;;;8.13;3.80;;;18.90;99.90;18.70;100873;;;;586903;240;24018;-76
2023/08/18 01:39:16;;;;;;;16.20;4.00;;;18.90;99.90;18.70;100876;;;;586576;240;24041;-77
2023/08/18 01:41:44;;;;;;;13.43;4.30;;;18.90;99.90;18.70;100873;;;;586649;240;24085;-76
2023/08/18 01:44:19;;;;;;;7.90;4.10;;;18.90;99.90;18.70;100865;;;;582764;240;24065;-77
2023/08/18 01:46:44;;;;;;;6.83;4.03;;;18.90;99.90;18.70;100863;;;;595881;240;24103;-76
2023/08/18 01:49:15;;;;;;;9.93;4.60;;;18.90;99.90;18.70;100858;;;;586471;240;23075;-76
2023/08/18 01:51:43;;;;;;;8.50;4.10;;;18.90;99.90;18.70;100859;;;;586119;240;23101;-78
2023/08/18 01:54:09;;;;;;;6.93;4.13;;;18.90;99.90;18.70;100859;;;;586307;240;24056;-77
2023/08/18 01:56:38;;;;;;;7.65;5.55;;;18.90;99.90;18.70;100857;;;;581687;240;45867;-75
2023/08/18 01:59:06;;;;;;;11.40;5.97;;;18.90;99.90;18.70;100859;;;;581449;240;34963;-77
2023/08/18 02:01:34;;;;;;;6.00;4.60;;;18.90;99.90;18.60;100853;;;;586527;240;23139;-77
2023/08/18 02:04:02;;;;;;;11.37;4.70;;;18.90;99.90;18.60;100854;;;;586351;240;24055;-77
2023/08/18 02:06:31;;;;;;;9.10;4.20;;;18.90;99.90;18.60;100855;;;;595709;240;24052;-80
2023/08/18 02:08:58;;;;;;;8.37;4.30;;;18.90;99.90;18.70;100860;;;;586365;240;23089;-76
2023/08/18 02:11:26;;;;;;;6.40;4.00;;;18.90;99.90;18.70;100870;;;;586357;240;24119;-76
2023/08/18 02:13:53;;;;;;;4.47;4.00;;;18.90;99.90;18.70;100874;;;;586394;240;23137;-78
2023/08/18 02:16:21;;;;;;;6.63;5.60;;;18.90;99.90;18.70;100868;;;;595807;238;23087;-80
2023/08/18 02:18:50;;;;;;;13.70;4.33;;;19.00;99.90;18.70;100867;;;;587996;240;23068;-77
2023/08/18 02:21:17;;;;;;;12.53;4.77;;;18.90;99.90;18.70;100876;;;;587378;240;23034;-79
2023/08/18 02:23:45;;;;;;;6.17;4.63;;;19.00;99.90;18.70;100873;;;;587259;240;23063;-78
2023/08/18 02:26:17;;;;;;;10.83;4.47;;;18.90;99.90;18.70;100858;;;;587488;240;24083;-77
2023/08/18 02:28:42;;;;;;;5.37;4.13;;;19.00;99.90;18.70;100847;;;;587178;240;23050;-78
2023/08/18 02:31:10;;;;;;;8.27;4.83;;;19.00;99.90;18.70;100827;;;;587367;240;24120;-78
2023/08/18 02:33:37;;;;;;;6.73;4.07;;;19.00;99.90;18.70;100829;;;;587464;240;24046;-81
2023/08/18 02:36:08;;;;;;;8.13;4.63;;;18.90;99.90;18.70;100821;;;;587364;240;24061;-77
2023/08/18 02:38:33;;;;;;;8.93;5.27;;;19.00;99.90;18.70;100835;;;;596001;240;23077;-80
2023/08/18 02:41:01;;;;;;;9.80;5.03;;;19.00;99.90;18.70;100829;;;;587077;240;24026;-79
2023/08/18 02:43:29;;;;;;;6.93;5.37;;;18.90;99.90;18.70;100828;;;;586711;240;24036;-75
2023/08/18 02:45:57;;;;;;;9.63;5.50;;;18.90;99.90;18.70;100836;;;;596085;240;23115;-77
2023/08/18 02:48:31;;;;;;;9.27;5.33;;;18.90;99.90;18.70;100835;;;;583130;240;23075;-76
2023/08/18 02:51:07;;;;;;;9.27;5.43;;;18.90;99.90;18.70;100844;;;;595465;240;24218;-76
2023/08/18 02:53:37;;;;;;;10.70;6.87;;;18.90;99.90;18.70;100838;;;;586537;240;23109;-77
2023/08/18 02:56:03;;;;;;;17.80;8.53;;;18.90;99.90;18.70;100838;;;;586307;240;23463;-77
2023/08/18 02:58:32;;;;;;;9.17;8.00;;;18.90;99.90;18.60;100843;;;;595846;240;24045;-76
2023/08/18 03:01:05;;;;;;;16.90;9.43;;;18.90;99.90;18.60;100843;;;;582826;240;24026;-76
2023/08/18 03:03:33;;;;;;;16.90;10.03;;;18.90;99.90;18.60;100845;;;;583124;240;23159;-80
2023/08/18 03:06:03;;;;;;;12.57;9.33;;;18.90;99.90;18.60;100853;;;;584197;240;23043;-79
2023/08/18 03:08:32;;;;;;;19.60;8.77;;;18.90;99.90;18.60;100844;;;;584391;240;24079;-80
2023/08/18 03:11:04;;;;;;;13.43;8.57;;;18.90;99.90;18.70;100856;;;;586555;240;24073;-78
2023/08/18 03:13:32;;;;;;;11.53;8.50;;;18.90;99.90;18.70;100857;;;;586318;240;24127;-76
2023/08/18 03:15:56;;;;;;;10.17;7.67;;;18.90;99.90;18.70;100860;;;;595486;240;24067;-75
2023/08/18 03:18:24;;;;;;;15.27;7.93;;;18.90;99.90;18.70;100866;;;;595616;240;24073;-77
2023/08/18 03:20:52;;;;;;;13.73;7.23;;;18.90;99.90;18.70;100873;;;;595814;240;24099;-77
2023/08/18 03:23:20;;;;;;;13.67;7.43;;;18.90;99.90;18.70;100868;;;;585352;240;24184;-77
2023/08/18 03:25:48;;;;;;;9.40;6.17;;;18.90;99.90;18.70;100871;;;;595871;240;23050;-76
2023/08/18 03:28:16;;;;;;;10.77;6.23;;;18.90;99.90;18.70;100866;;;;587426;238;24028;-80
2023/08/18 03:30:44;;;;;;;9.90;7.13;;;18.90;99.90;18.70;100862;;;;588464;240;23066;-79
2023/08/18 03:33:12;;;;;;;15.40;6.97;;;19.00;99.90;18.70;100868;;;;604300;237;24031;-79
2023/08/18 03:35:40;;;;;;;9.37;6.93;;;19.00;99.90;18.70;100872;;;;582521;242;23083;-79
2023/08/18 03:38:08;;;;;;;10.23;6.93;;;19.00;99.90;18.70;100858;;;;592755;238;24090;-77
2023/08/18 03:40:35;;;;;;;9.17;6.73;;;19.00;99.90;18.70;100867;;;;583301;242;24155;-77
2023/08/18 03:43:03;;;;;;;9.33;6.83;;;19.00;99.90;18.70;100867;;;;603853;237;23043;-77
2023/08/18 03:45:33;;;;;;;7.73;6.70;;;19.00;99.90;18.70;100866;;;;594029;237;24045;-78
2023/08/18 03:48:00;;;;;;;7.07;6.37;;;18.90;99.90;18.70;100872;;;;593924;237;24057;-79
2023/08/18 03:50:28;;;;;;;7.90;7.07;;;19.00;99.90;18.70;100867;;;;594761;237;24037;-76
2023/08/18 03:52:57;;;;;;;12.33;6.33;;;19.00;99.90;18.70;100870;;;;594116;237;24054;-77
2023/08/18 03:55:24;;;;;;;15.47;7.37;;;19.00;99.90;18.70;100874;;;;603525;237;23080;-78
2023/08/18 03:57:52;;;;;;;12.63;7.57;;;19.00;99.90;18.80;100872;;;;593502;237;23058;-84
2023/08/18 04:00:20;;;;;;;14.93;8.07;;;19.00;99.90;18.80;100876;;;;594333;237;24033;-80
2023/08/18 04:02:48;;;;;;;9.63;6.07;;;19.00;99.90;18.80;100870;;;;594395;237;24080;-80
2023/08/18 04:05:16;;;;;;;15.10;6.87;;;19.00;99.90;18.80;100875;;;;594124;237;23147;-81
2023/08/18 04:07:44;;;;;;;13.37;7.13;;;19.10;99.90;18.90;100877;;;;593881;237;23120;-81
2023/08/18 04:10:12;;;;;;;15.37;7.53;;;19.20;99.90;18.90;100890;;;;593816;237;24069;-79
2023/08/18 04:12:40;;;;;;;13.07;7.60;;;19.20;99.90;18.90;100880;;;;593831;237;23040;-82
2023/08/18 04:15:11;;;;;;;10.97;8.37;;;19.10;99.90;19.00;100884;;;;593424;237;23075;-78
2023/08/18 04:17:36;;;;;;;10.20;7.93;;;19.20;99.90;19.00;100873;;;;590916;237;23117;-76
2023/08/18 04:20:07;;;;;;;10.07;8.00;;;19.20;99.90;19.00;100868;;;;593523;237;24125;-76
2023/08/18 04:22:32;;;;;;;14.93;8.80;;;19.20;99.90;19.00;100874;;;;602796;237;24044;-84
2023/08/18 04:25:00;;;;;;;7.97;7.07;;;19.20;99.90;19.10;100876;;;;594133;237;23139;-76
2023/08/18 04:27:27;;;;;;;14.03;7.63;;;19.30;99.90;19.10;100875;;;;594104;237;24081;-76
2023/08/18 04:29:55;;;;;;;17.40;7.57;;;19.30;99.90;19.20;100875;;;;593759;237;24030;-77
2023/08/18 04:32:23;;;;;;;13.87;8.13;;;19.40;99.90;19.20;100879;;;;593989;237;23047;-83
2023/08/18 04:34:51;;;;;;;12.33;7.60;;;19.40;99.90;19.20;100874;;;;594152;237;24037;-80
2023/08/18 04:37:19;;;;;;;16.00;7.53;;;19.40;99.90;19.30;100872;;;;594147;237;24119;-81
2023/08/18 04:39:47;;;;;;;10.20;6.87;;;19.50;99.90;19.30;100866;;;;594359;235;24071;-78
2023/08/18 04:42:15;;;;;;;13.17;7.43;;;19.60;99.90;19.40;100877;;;;595413;237;24064;-78
2023/08/18 04:44:43;;;;;;;9.33;7.90;;;19.60;99.90;19.40;100862;;;;594923;237;23049;-87
2023/08/18 04:47:11;;;;;;;8.60;6.23;;;19.60;99.90;19.40;100865;;;;594400;237;24026;-81
2023/08/18 04:49:39;;;;;;;10.83;7.83;;;19.70;99.90;19.50;100864;;;;594445;237;24017;-86
2023/08/18 04:52:07;;;;;;;13.70;8.07;;;19.70;99.90;19.50;100867;;;;594338;237;24077;-81
2023/08/18 04:54:35;;;;;;;11.37;8.17;;;19.70;99.90;19.50;100860;;;;594478;237;23043;-79
2023/08/18 04:57:03;;;;;;;12.67;8.07;;;19.70;99.90;19.50;100860;;;;594371;237;24018;-85
2023/08/18 04:59:30;;;;;;;11.03;7.77;;;19.70;99.90;19.50;100864;;;;594087;237;24052;-84
2023/08/18 05:01:58;;;;;;;15.77;8.30;;;19.80;99.90;19.60;100873;;;;594500;237;24017;-83
2023/08/18 05:04:27;;;;;;;11.80;7.40;;;19.80;99.90;19.60;100879;;;;594622;237;24010;-77
2023/08/18 05:06:56;;;;;;;8.43;7.30;;;19.90;99.90;19.70;100887;;;;594364;237;24074;-80
2023/08/18 05:09:25;;;;;;;16.67;8.00;;;20.00;99.90;19.80;100892;;;;594304;237;23082;-80
2023/08/18 05:11:53;;;;;;;14.03;8.77;;;20.10;99.90;19.90;100892;;;;594414;237;24055;-79
2023/08/18 05:14:22;;;;;;;13.73;10.00;;;20.40;99.90;20.30;100893;;;;594267;237;24041;-79
2023/08/18 05:16:51;;;;;;;11.57;8.47;;;20.90;99.90;20.80;100901;;;;593898;237;23059;-77
2023/08/18 05:19:22;;;;;;;12.97;7.80;;;21.20;99.90;21.00;100899;;;;593593;237;24050;-80
2023/08/18 05:21:47;;;;;;;9.27;7.13;;;21.20;99.90;21.00;100891;;;;593344;237;24170;-83
2023/08/18 05:24:15;;;;;;;8.60;7.27;;;21.30;99.90;21.00;100902;;;;593540;237;24031;-83
2023/08/18 05:26:43;;;;;;;13.30;7.60;;;21.30;99.90;21.00;100896;;;;593450;237;24018;-85
2023/08/18 05:29:11;;;;;;;11.10;7.47;;;21.30;99.90;20.90;100909;;;;593404;237;24033;-78
2023/08/18 05:31:39;;;;;;;13.07;8.00;;;21.20;99.90;20.90;100905;;;;594018;237;24099;-82
2023/08/18 05:34:07;;;;;;;15.27;8.03;;;21.10;99.90;20.80;100910;;;;594459;237;24050;-76
2023/08/18 05:36:36;;;;;;;11.07;7.70;;;21.10;99.90;20.80;100907;;;;595083;237;24074;-77
2023/08/18 05:39:05;;;;;;;12.53;8.87;;;21.10;99.90;20.80;100908;;;;594508;237;24018;-78
2023/08/18 05:41:30;;;;;;;17.87;8.97;;;21.10;99.90;20.80;100906;;;;603205;237;24056;-81
2023/08/18 05:43:58;;;;;;;17.13;10.13;;;21.10;99.90;20.90;100904;;;;594109;237;24073;-77
2023/08/18 05:46:29;;;;;;;16.17;10.17;;;21.10;99.90;21.00;100901;;;;594060;237;24065;-81
2023/08/18 05:48:54;;;;;;;14.07;10.63;;;21.20;99.90;21.20;100892;;;;593609;237;24030;-79
2023/08/18 05:51:26;;;;;;;16.67;9.70;;;21.30;99.90;21.30;100900;;;;594416;235;24071;-77
2023/08/18 05:53:54;;;;;;;16.07;10.40;;;21.60;99.90;21.50;100896;;;;594872;237;24030;-77
2023/08/18 05:56:18;;;;;;;27.63;10.50;;;21.70;99.90;21.70;100895;;;;594526;237;24044;-82
2023/08/18 05:58:46;;;;;;;17.13;10.57;;;21.90;99.90;22.00;100901;;;;594492;237;24031;-77
2023/08/18 06:01:14;;;;;;;16.00;10.90;;;22.20;99.90;22.50;100913;;;;594611;237;24021;-77
2023/08/18 06:03:42;;;;;;;18.67;9.90;;;22.60;99.90;23.80;100920;;;;594103;237;24037;-77
2023/08/18 06:06:10;;;;;;;11.70;9.93;;;23.70;99.90;25.70;100932;;;;593970;237;23098;-78
2023/08/18 06:08:38;;;;;;;15.07;9.33;;;25.50;99.90;27.00;100927;;;;593856;237;24015;-79
2023/08/18 06:11:05;;;;;;;13.10;8.77;;;27.00;99.90;28.20;100921;;;;594028;237;24055;-80
2023/08/18 06:13:33;;;;;;;12.77;8.27;;;28.20;99.90;29.30;100913;;;;593685;237;23050;-79
2023/08/18 06:16:07;;;;;;;11.50;8.98;;;29.30;99.90;30.10;100924;;;;602917;237;23053;-79
2023/08/18 06:18:33;;;;;;;15.00;9.20;;;30.30;99.90;30.00;100921;;;;592989;237;23052;-78
2023/08/18 06:21:00;;;;;;;18.25;9.70;;;30.40;99.90;29.40;100927;;;;593572;237;23110;-77
2023/08/18 06:23:29;;;;;;;13.85;9.93;;;29.30;99.90;28.60;100923;;;;593811;237;23086;-76
2023/08/18 06:25:58;;;;;;;10.73;9.20;;;28.60;99.90;27.90;100935;;;;593666;237;24047;-77
2023/08/18 06:28:26;;;;;;;14.05;9.18;;;27.90;99.90;27.30;100933;;;;593405;237;23090;-77
2023/08/18 06:30:54;;;;;;;14.52;9.13;;;27.90;99.90;26.90;100925;;;;593421;237;23032;-77
2023/08/18 06:33:22;;;;;;;12.55;9.25;;;27.40;99.90;26.60;100915;;;;593495;237;23074;-77
2023/08/18 06:35:54;;;;;;;10.45;8.85;;;27.00;99.90;26.30;100919;;;;594130;237;23127;-78
2023/08/18 06:38:18;;;;;;;13.40;9.27;;;26.70;99.90;26.20;100933;;;;602726;237;23048;-77
2023/08/18 06:40:47;;;;;;;11.65;8.77;;;26.40;99.90;26.20;100933;;;;593794;237;24036;-79
2023/08/18 06:43:15;;;;;;;11.77;8.23;;;26.50;99.90;26.30;100934;;;;593788;237;23160;-78
2023/08/18 06:45:47;;;;;;;15.10;10.38;;;26.50;99.90;26.40;100939;;;;588526;237;35043;-83
2023/08/18 06:48:13;;;;;;;16.63;11.13;;;26.40;99.90;26.20;100940;;;;591135;237;23082;-78
2023/08/18 06:50:41;;;;;;;18.30;10.63;;;26.20;99.90;26.00;100945;;;;593368;237;23048;-76
2023/08/18 06:53:10;;;;;;;16.23;11.77;;;26.00;99.90;25.60;100934;;;;593504;237;23057;-78
2023/08/18 06:55:39;;;;;;;15.07;11.13;;;25.60;99.90;25.30;100936;;;;593377;237;24046;-77
2023/08/18 06:58:07;;;;;;;19.60;12.00;;;25.40;99.90;25.10;100929;;;;593417;237;23083;-77
2023/08/18 07:00:36;;;;;;;23.73;11.37;;;25.20;99.90;25.00;100925;;;;593352;237;23057;-76
2023/08/18 07:03:05;;;;;;;18.63;11.93;;;25.50;99.90;25.50;100935;;;;603098;236;24099;-79
2023/08/18 07:05:33;;;;;;;14.90;11.97;;;25.70;99.90;25.70;100931;;;;595288;237;23079;-77
2023/08/18 07:08:03;;;;;;;17.37;12.63;;;25.80;99.90;25.60;100922;;;;594813;237;24067;-77
2023/08/18 07:10:31;;;;;;;16.52;11.70;;;25.90;99.90;25.60;100928;;;;594831;237;23035;-77
2023/08/18 07:12:59;;;;;;;13.67;11.07;;;25.90;99.90;25.70;100939;;;;594548;237;24073;-77
2023/08/18 07:15:27;;;;;;;16.30;10.80;;;25.90;99.90;25.80;100923;;;;594519;237;23098;-76
2023/08/18 07:17:55;;;;;;;16.23;11.40;;;26.10;99.90;26.00;100920;;;;594400;237;23044;-77
2023/08/18 07:20:23;;;;;;;15.27;10.60;;;26.20;99.90;26.20;100923;;;;594172;237;23078;-78
2023/08/18 07:22:50;;;;;;;15.37;10.40;;;26.40;99.90;26.80;100920;;;;594068;237;23055;-85
2023/08/18 07:25:18;;;;;;;18.83;10.93;;;26.90;99.90;27.20;100914;;;;593797;237;23055;-83
2023/08/18 07:27:46;;;;;;;11.33;10.13;;;27.40;99.90;27.80;100922;;;;593938;237;23043;-78
2023/08/18 07:30:14;;;;;;;12.98;10.32;;;28.00;99.90;28.20;100925;;;;594263;237;23054;-83
2023/08/18 07:32:42;;;;;;;12.77;9.75;;;28.40;99.90;28.20;100918;;;;594178;237;24094;-87
2023/08/18 07:35:10;;;;;;;40.47;10.57;;;28.50;99.90;28.10;100917;;;;593895;237;23116;-88
2023/08/18 07:37:38;;;;;;;14.07;9.95;;;28.50;99.90;27.90;100918;;;;603605;237;23087;-88
2023/08/18 07:40:09;;;;;;;15.48;9.48;;;28.20;99.90;27.90;100912;;;;593888;237;24062;-82
2023/08/18 07:42:35;;;;;;;17.08;9.68;;;28.20;99.90;27.80;100906;;;;593785;237;23058;-79
2023/08/18 07:45:03;;;;;;;13.57;8.95;;;28.10;99.90;28.10;100905;;;;593910;237;24050;-82
2023/08/18 07:47:31;;;;;;;17.58;8.68;;;28.30;99.90;28.70;100901;;;;603311;237;23090;-80
2023/08/18 07:49:59;;;;;;;11.05;8.52;;;28.80;99.90;29.50;100898;;;;581838;242;23127;-82
2023/08/18 07:52:26;;;;;;;9.68;7.85;;;29.60;99.90;30.70;100886;;;;583451;240;23058;-84
2023/08/18 07:54:57;;;;;;;10.48;7.12;;;30.60;99.90;32.20;100896;;;;586677;240;23178;-78
2023/08/18 07:57:22;;;;;;;13.57;7.00;;;32.10;99.90;34.30;100903;;;;581081;240;23095;-85
2023/08/18 07:59:50;;;;;;;11.43;6.72;;;34.00;99.90;36.70;100894;;;;587375;240;23024;-84
2023/08/18 08:02:18;;;;;;;7.10;6.40;;;36.40;99.90;38.80;100892;;;;587107;240;23104;-86
2023/08/18 08:04:46;;;;;;;10.27;6.62;;;38.60;96.70;40.20;100897;;;;587087;240;23075;-88
2023/08/18 08:07:18;;;;;;;7.68;5.80;;;40.10;90.70;41.20;100899;;;;586769;240;24127;-83
2023/08/18 08:09:45;;;;;;;13.50;6.60;;;41.20;82.80;42.30;100905;;;;586556;240;23074;-78
2023/08/18 08:12:10;;;;;;;8.73;5.97;;;42.40;74.10;43.00;100904;;;;586550;240;23115;-88
2023/08/18 08:14:38;;;;;;;21.02;5.45;;;43.20;68.70;43.70;100902;;;;587900;239;23053;-82
2023/08/18 08:17:06;;;;;;;6.55;5.80;;;44.00;65.20;44.60;100905;;;;588150;240;23125;-81
2023/08/18 08:19:34;;;;;;;8.73;5.75;;;44.50;58.40;43.80;100911;;;;587849;240;23033;-86
2023/08/18 08:22:09;;;;;;;10.57;5.68;;;43.50;59.00;42.60;100925;;;;587911;240;23082;-80
2023/08/18 08:24:32;;;;;;;10.65;5.97;;;43.10;60.90;42.40;100923;;;;587536;240;23048;-80
2023/08/18 08:27:00;;;;;;;11.25;6.20;;;43.10;60.80;42.70;100926;;;;587748;240;23039;-85
2023/08/18 08:29:28;;;;;;;8.50;5.22;;;43.20;59.90;41.80;100923;;;;587502;240;23088;-79
2023/08/18 08:31:55;;;;;;;10.75;5.87;;;42.60;60.40;41.00;100934;;;;597252;240;23058;-85
2023/08/18 08:34:23;;;;;;;11.27;5.93;;;41.90;61.50;40.30;100933;;;;587869;240;23058;-83
2023/08/18 08:36:51;;;;;;;5.78;5.05;;;41.10;62.30;39.90;100936;;;;588376;240;23057;-79
2023/08/18 08:39:19;;;;;;;6.28;4.90;;;40.60;63.30;39.60;100940;;;;588229;240;23031;-80
2023/08/18 08:41:47;;;;;;;4.82;4.28;;;40.20;63.70;39.70;100930;;;;587777;240;23031;-86
2023/08/18 08:44:15;;;;;;;8.25;4.80;;;40.20;64.50;39.30;100935;;;;587798;240;23023;-83
2023/08/18 08:46:46;;;;;;;5.80;4.62;;;39.80;64.80;39.30;100930;;;;587653;240;23101;-82
2023/08/18 08:49:11;;;;;;;7.93;5.22;;;39.60;64.00;39.10;100925;;;;586918;240;23078;-80
2023/08/18 08:51:40;;;;;;;7.97;4.20;;;39.60;64.80;38.50;100921;;;;587436;240;23101;-79
2023/08/18 08:54:07;;;;;;;5.65;3.95;;;39.20;64.10;38.00;100914;;;;586658;240;23059;-78
2023/08/18 08:56:35;;;;;;;5.80;4.45;;;38.70;64.70;37.90;100906;;;;586897;240;23074;-78
2023/08/18 08:59:05;;;;;;;5.00;4.50;;;38.50;66.20;37.80;100902;;;;583255;240;23062;-78
2023/08/18 09:01:32;;;;;;;5.53;4.37;;;38.30;66.90;37.80;100894;;;;580913;240;23109;-79
2023/08/18 09:04:04;;;;;;;4.45;4.12;;;38.20;67.30;37.90;100890;;;;586664;240;23040;-77
2023/08/18 09:06:28;;;;;;;5.05;4.60;;;38.30;66.40;37.90;100891;;;;586767;240;23051;-77
2023/08/18 09:08:59;;;;;;;4.72;4.20;;;38.40;66.00;37.40;100887;;;;587263;240;23076;-77
2023/08/18 09:11:42;;;;;;;19.00;6.05;;;38.10;65.50;37.00;100885;;;;596131;240;23077;-77
2023/08/18 09:14:07;;;;;;;4.57;4.03;;;37.70;65.90;36.90;100890;;;;586855;240;23028;-78
2023/08/18 09:16:38;;;;;;;9.73;4.43;;;37.40;66.60;36.70;100898;;;;587395;240;23044;-77
2023/08/18 09:19:03;;;;;;;23.40;5.10;;;37.20;68.30;36.20;100897;;;;587669;240;23101;-77
2023/08/18 09:21:33;;;;;;;7.15;4.45;;;36.70;69.70;35.80;100893;;;;587552;240;23035;-79
2023/08/18 09:24:06;;;;;;;4.43;4.12;;;36.40;71.10;35.30;100895;;;;583947;240;23047;-77
2023/08/18 09:26:30;;;;;;;6.62;4.80;;;35.90;72.30;34.80;100906;;;;584897;240;23056;-80
2023/08/18 09:29:02;;;;;;;5.32;4.85;;;35.30;73.50;34.10;100906;;;;588449;240;23042;-79
2023/08/18 09:31:26;;;;;;;8.10;4.72;;;34.80;74.60;33.40;100905;;;;588228;240;25185;-80
2023/08/18 09:33:55;;;;;;;3.87;3.65;;;33.50;75.00;32.80;100904;;;;588259;240;23093;-80
2023/08/18 09:36:23;;;;;;;4.47;4.18;;;33.50;75.00;32.20;100906;;;;587894;240;24035;-85
2023/08/18 09:38:51;;;;;;;5.78;4.90;;;32.90;77.10;31.60;100903;;;;585712;245;23095;-85
2023/08/18 09:41:21;;;;;;;4.85;4.47;;;32.20;80.00;31.10;100921;;;;602009;234;23093;-84
2023/08/18 09:43:49;;;;;;;5.10;4.70;;;31.70;82.80;30.50;100931;;;;594232;239;23084;-84
2023/08/18 09:46:18;;;;;;;6.07;4.50;;;31.10;85.20;30.10;100923;;;;604299;233;24028;-85
2023/08/18 09:48:42;;;;;;;6.95;5.43;;;30.60;87.10;29.70;100930;;;;597588;235;23067;-86
2023/08/18 09:51:10;;;;;;;12.63;6.75;;;30.20;90.30;29.40;100942;;;;604277;235;23098;-84
2023/08/18 09:53:42;;;;;;;6.90;6.20;;;29.80;92.80;29.10;100939;;;;595446;239;24070;-84
2023/08/18 09:56:15;;;;;;;9.20;6.25;;;29.50;93.90;28.80;100951;;;;589902;238;23043;-83
2023/08/18 09:58:52;;;;;;;7.78;6.03;;;29.30;94.40;28.50;100958;;;;594174;237;24021;-82
2023/08/18 10:01:19;;;;;;;6.70;6.20;;;29.00;95.30;28.20;100960;;;;591117;235;24084;-83
2023/08/18 10:03:47;;;;;;;9.50;7.57;;;28.70;96.80;27.80;100962;;;;588458;240;23080;-82
2023/08/18 10:06:15;;;;;;;9.23;6.55;;;28.30;99.80;27.50;100943;;;;590707;238;23066;-83
2023/08/18 10:08:47;;;;;;;9.32;7.03;;;27.90;99.90;27.20;100956;;;;608406;235;24042;-84
2023/08/18 10:11:15;;;;;;;8.48;6.85;;;27.70;99.90;27.10;100955;;;;600602;238;23107;-82
2023/08/18 10:13:42;;;;;;;11.33;6.60;;;27.40;99.90;26.90;100947;;;;591068;239;23054;-84
2023/08/18 10:16:11;;;;;;;12.57;5.87;;;27.10;99.90;26.70;100941;;;;591154;240;24083;-82
2023/08/18 10:18:40;;;;;;;12.75;7.32;;;27.10;99.90;26.70;100939;;;;588231;238;34980;-82
2023/08/18 10:21:15;;;;;;;7.47;6.22;;;27.00;99.90;26.60;100932;;;;593963;238;24116;-83
2023/08/18 10:23:38;;;;;;;7.90;6.57;;;26.90;99.90;26.60;100929;;;;600428;235;23121;-84
2023/08/18 10:26:02;;;;;;;14.03;6.53;;;26.90;99.90;26.50;100937;;;;602248;235;23022;-82
2023/08/18 10:28:32;;;;;;;7.53;6.17;;;26.80;99.90;26.50;100933;;;;605511;235;24008;-84
2023/08/18 10:31:07;;;;;;;11.75;7.10;;;26.80;99.90;26.50;100934;;;;592693;235;23036;-82
2023/08/18 10:33:45;;;;;;;9.93;6.97;;;26.70;99.90;26.50;100925;;;;609387;235;23060;-77
2023/08/18 10:36:14;;;;;;;7.67;6.93;;;26.70;99.90;26.40;100921;;;;590214;240;23094;-80
2023/08/18 10:38:39;;;;;;;10.77;6.80;;;26.70;99.90;26.50;100927;;;;592284;239;24100;-82
2023/08/18 10:41:06;;;;;;;11.33;7.37;;;26.80;99.90;26.60;100929;;;;592499;239;24090;-83
2023/08/18 10:43:47;;;;;;;7.00;6.33;;;26.90;99.90;26.70;100928;;;;601869;239;23093;-80
2023/08/18 10:46:13;;;;;;;9.27;6.43;;;26.90;99.90;26.60;100935;;;;594167;239;24059;-82
2023/08/18 10:48:41;;;;;;;8.10;6.50;;;26.90;99.90;26.60;100921;;;;591914;239;23079;-84
2023/08/18 10:51:09;;;;;;;7.43;6.22;;;27.00;99.90;26.70;100912;;;;591742;239;24095;-86
2023/08/18 10:53:40;;;;;;;8.03;6.27;;;27.00;99.90;26.70;100909;;;;591764;239;24077;-78
2023/08/18 10:56:07;;;;;;;6.33;5.73;;;27.10;99.90;26.80;100905;;;;587336;243;24108;-77
2023/08/18 10:58:35;;;;;;;7.95;5.37;;;27.10;99.90;26.90;100908;;;;591132;239;24127;-77
2023/08/18 11:01:07;;;;;;;6.80;5.20;;;27.30;99.90;27.00;100905;;;;591147;239;23048;-77
2023/08/18 11:03:35;;;;;;;5.80;5.13;;;27.40;99.90;27.00;100907;;;;591118;239;23045;-80
2023/08/18 11:06:00;;;;;;;5.00;4.70;;;27.30;99.90;27.10;100908;;;;591057;239;23045;-77
2023/08/18 11:08:28;;;;;;;6.78;6.00;;;27.40;99.90;27.10;100901;;;;591588;239;23127;-78
2023/08/18 11:10:56;;;;;;;6.93;6.18;;;27.40;99.90;27.10;100904;;;;591525;239;23032;-76